KBDH

Willmar Municipal-John L Rice Field Airport

Willmar, Minnesota, USA
METAR KBDH 212315Z AUTO 33006KT 10SM CLR 22/09 A3019 RMK AO2
Observed Flight Rules
Aug-21 @ 23:15 UTC (32 minutes ago) Visual Flight Rules
Wind Visibility Clouds
330° at 6 knots 10 miles
  • Clear skies
Temperatures Readings
Current 22°C / 72°F
Dewpoint 9°C / 48°F
Humidity 44%
Altimeter 30.19" Hg
Pressure 1022 hPa
Elevation 247
METAR KBDH 212315Z AUTO 33006KT 10SM CLR 22/09 A3019 RMK AO2
Observed Flight Rules
Aug-21 @ 23:15 UTC
(32 minutes ago)
VFR
Wind Visibility
330° at 6 knots 10 miles
Clouds
  • Clear skies
Temperature Dewpoint
22°C / 72°F 9°C / 48°F
Humidity Altimeter Pressure
44% 30.19" Hg 1022 hPa